createdAt,value
2024-01-29T00:01:17.199Z,63.77
2024-01-29T00:03:52.534Z,64.66
2024-01-29T00:06:20.817Z,64.27
2024-01-29T00:08:49.139Z,63.76
2024-01-29T00:11:17.818Z,63.21
2024-01-29T00:13:47.573Z,62.38
2024-01-29T00:16:16.038Z,61.21
2024-01-29T00:18:44.381Z,60.90
2024-01-29T00:21:14.330Z,60.71
2024-01-29T00:23:42.481Z,60.61
2024-01-29T00:26:11.006Z,60.46
2024-01-29T00:28:39.138Z,60.32
2024-01-29T00:31:08.684Z,59.96
2024-01-29T00:33:37.604Z,59.00
2024-01-29T00:36:06.109Z,57.86
2024-01-29T00:38:34.696Z,58.78
2024-01-29T00:41:02.818Z,59.31
2024-01-29T00:43:30.882Z,60.13
2024-01-29T00:45:59.201Z,60.95
2024-01-29T00:48:27.553Z,62.32
2024-01-29T00:50:57.097Z,64.41
2024-01-29T00:53:25.581Z,64.78
2024-01-29T00:55:55.237Z,64.17
2024-01-29T00:58:23.363Z,63.47
2024-01-29T01:00:52.400Z,62.61
2024-01-29T01:03:21.062Z,62.00
2024-01-29T01:05:49.691Z,61.54
2024-01-29T01:08:18.951Z,61.25
2024-01-29T01:10:47.399Z,60.63
2024-01-29T01:13:15.489Z,59.95
2024-01-29T01:15:43.661Z,58.81
2024-01-29T01:18:12.560Z,57.70
2024-01-29T01:20:40.952Z,58.50
2024-01-29T01:23:09.196Z,59.69
2024-01-29T01:25:37.684Z,60.39
2024-01-29T01:28:07.861Z,61.01
2024-01-29T01:30:36.117Z,62.55
2024-01-29T01:33:04.914Z,64.52
2024-01-29T01:35:33.071Z,64.57
2024-01-29T01:38:01.463Z,63.78
2024-01-29T01:40:29.606Z,63.30
2024-01-29T01:42:57.800Z,62.70
2024-01-29T01:45:26.095Z,62.28
2024-01-29T01:47:54.680Z,61.96
2024-01-29T01:50:23.406Z,61.58
2024-01-29T01:52:51.472Z,60.94
2024-01-29T01:55:19.756Z,60.53
2024-01-29T01:57:48.173Z,60.20
2024-01-29T02:00:17.434Z,59.17
2024-01-29T02:02:45.496Z,57.82
2024-01-29T02:05:13.953Z,58.48
2024-01-29T02:07:42.696Z,59.39
2024-01-29T02:10:11.432Z,59.90
2024-01-29T02:12:39.669Z,61.07
2024-01-29T02:15:09.657Z,62.22
2024-01-29T02:17:38.053Z,64.05
2024-01-29T02:20:08.205Z,64.14
2024-01-29T02:22:41.850Z,63.65
2024-01-29T02:25:10.178Z,63.15
2024-01-29T02:27:38.547Z,62.56
2024-01-29T02:30:07.435Z,61.95
2024-01-29T02:32:35.799Z,61.02
2024-01-29T02:35:04.657Z,60.86
2024-01-29T02:37:32.965Z,60.63
2024-01-29T02:40:01.174Z,60.45
2024-01-29T02:42:29.825Z,59.57
2024-01-29T02:44:58.095Z,58.26
2024-01-29T02:47:26.779Z,57.47
2024-01-29T02:49:55.156Z,57.96
2024-01-29T02:52:23.690Z,58.89
2024-01-29T02:54:51.928Z,59.89
2024-01-29T02:57:25.442Z,60.90
2024-01-29T02:59:55.008Z,62.32
2024-01-29T03:02:23.068Z,64.39
2024-01-29T03:04:51.480Z,64.50
2024-01-29T03:07:19.821Z,64.12
2024-01-29T03:09:48.024Z,63.46
2024-01-29T03:12:16.407Z,62.75
2024-01-29T03:14:44.558Z,62.17
2024-01-29T03:17:12.822Z,61.66
2024-01-29T03:19:41.675Z,61.08
2024-01-29T03:22:10.062Z,60.76
2024-01-29T03:24:38.403Z,60.34
2024-01-29T03:27:06.848Z,59.92
2024-01-29T03:29:34.966Z,59.01
2024-01-29T03:32:03.322Z,57.69
2024-01-29T03:34:31.529Z,58.13
2024-01-29T03:36:59.873Z,59.16
2024-01-29T03:39:28.182Z,60.14
2024-01-29T03:41:56.419Z,60.92
2024-01-29T03:44:24.784Z,62.66
2024-01-29T03:46:53.162Z,64.47
2024-01-29T03:49:21.529Z,64.38
2024-01-29T03:51:49.688Z,63.84
2024-01-29T03:54:17.885Z,63.34
2024-01-29T03:56:45.996Z,62.98
2024-01-29T03:59:14.351Z,62.54
2024-01-29T04:01:42.949Z,61.99
2024-01-29T04:04:12.535Z,61.61
2024-01-29T04:06:42.119Z,61.45
2024-01-29T04:09:10.942Z,61.20
2024-01-29T04:11:39.524Z,60.85
2024-01-29T04:14:07.574Z,60.86
2024-01-29T04:16:35.963Z,60.50
2024-01-29T04:19:04.136Z,60.31
2024-01-29T04:21:32.304Z,60.30
2024-01-29T04:24:00.535Z,60.16
2024-01-29T04:26:28.953Z,60.04
2024-01-29T04:28:57.116Z,60.04
2024-01-29T04:31:25.508Z,59.87
2024-01-29T04:33:53.822Z,58.86
2024-01-29T04:36:22.073Z,57.73
2024-01-29T04:38:50.877Z,58.24
2024-01-29T04:41:20.276Z,59.22
2024-01-29T04:43:48.423Z,60.35
2024-01-29T04:46:17.689Z,61.10
2024-01-29T04:48:46.189Z,62.31
2024-01-29T04:51:14.671Z,64.10
2024-01-29T04:53:43.258Z,64.15
2024-01-29T04:56:11.262Z,63.57
2024-01-29T04:58:39.510Z,63.22
2024-01-29T05:01:07.685Z,62.74
2024-01-29T05:03:36.421Z,62.27
2024-01-29T05:06:04.913Z,61.83
2024-01-29T05:08:33.117Z,61.09
2024-01-29T05:11:01.398Z,60.49
2024-01-29T05:13:29.742Z,60.26
2024-01-29T05:15:58.112Z,59.77
2024-01-29T05:18:26.476Z,59.34
2024-01-29T05:20:55.032Z,58.08
2024-01-29T05:23:23.281Z,58.31
2024-01-29T05:25:51.382Z,58.93
2024-01-29T05:28:20.014Z,60.20
2024-01-29T05:30:47.997Z,62.55
2024-01-29T05:33:25.273Z,63.87
2024-01-29T05:35:56.592Z,63.71
2024-01-29T05:38:26.269Z,62.69
2024-01-29T05:40:54.445Z,62.22
2024-01-29T05:43:22.907Z,61.64
2024-01-29T05:45:51.154Z,61.00
2024-01-29T05:48:20.940Z,60.44
2024-01-29T05:50:49.293Z,59.82
2024-01-29T05:53:21.666Z,58.73
2024-01-29T05:55:50.425Z,57.81
2024-01-29T05:58:18.991Z,58.33
2024-01-29T06:00:47.351Z,59.70
2024-01-29T06:03:15.660Z,60.16
2024-01-29T06:05:44.189Z,61.10
2024-01-29T06:08:12.465Z,62.21
2024-01-29T06:10:41.113Z,63.87
2024-01-29T06:13:09.713Z,63.34
2024-01-29T06:15:38.371Z,62.18
2024-01-29T06:18:07.490Z,61.82
2024-01-29T06:20:35.837Z,61.61
2024-01-29T06:23:04.765Z,61.21
2024-01-29T06:25:33.226Z,60.53
2024-01-29T06:28:01.645Z,60.11
2024-01-29T06:30:29.883Z,59.16
2024-01-29T06:32:58.810Z,58.19
2024-01-29T06:35:27.152Z,60.01
2024-01-29T06:37:55.428Z,60.19
2024-01-29T06:40:28.641Z,61.62
2024-01-29T06:42:58.406Z,63.44
2024-01-29T06:45:30.105Z,63.36
2024-01-29T06:47:59.540Z,62.97
2024-01-29T06:50:27.752Z,62.42
2024-01-29T06:52:56.113Z,61.69
2024-01-29T06:55:24.769Z,60.71
2024-01-29T06:57:53.046Z,60.24
2024-01-29T07:00:21.683Z,59.95
2024-01-29T07:02:49.881Z,59.79
2024-01-29T07:05:18.340Z,58.88
2024-01-29T07:07:46.588Z,58.47
2024-01-29T07:10:16.208Z,59.16
2024-01-29T07:12:44.651Z,60.26
2024-01-29T07:15:15.380Z,60.68
2024-01-29T07:17:43.629Z,61.32
2024-01-29T07:20:12.534Z,63.57
2024-01-29T07:22:41.012Z,63.98
2024-01-29T07:25:09.940Z,63.11
2024-01-29T07:27:38.349Z,62.12
2024-01-29T07:30:07.605Z,61.49
2024-01-29T07:32:35.910Z,60.62
2024-01-29T07:35:05.386Z,60.13
2024-01-29T07:37:34.122Z,59.15
2024-01-29T07:40:04.950Z,58.24
2024-01-29T07:42:33.692Z,58.49
2024-01-29T07:45:02.941Z,59.42
2024-01-29T07:47:31.282Z,60.21
2024-01-29T07:49:59.536Z,60.76
2024-01-29T07:52:27.976Z,61.50
2024-01-29T07:54:56.778Z,63.04
2024-01-29T07:57:26.637Z,64.36
2024-01-29T07:59:54.844Z,63.92
2024-01-29T08:02:23.207Z,62.59
2024-01-29T08:04:51.911Z,62.05
2024-01-29T08:07:20.408Z,61.52
2024-01-29T08:09:49.112Z,60.95
2024-01-29T08:12:17.352Z,60.32
2024-01-29T08:14:45.725Z,60.06
2024-01-29T08:17:14.026Z,61.20
2024-01-29T08:19:42.594Z,60.60
2024-01-29T08:22:10.972Z,58.31
2024-01-29T08:24:40.010Z,56.35
2024-01-29T08:27:08.241Z,57.68
2024-01-29T08:29:36.683Z,59.13
2024-01-29T08:32:05.723Z,59.70
2024-01-29T08:34:34.283Z,60.90
2024-01-29T08:37:02.690Z,61.47
2024-01-29T08:39:32.083Z,62.72
2024-01-29T08:42:00.606Z,64.32
2024-01-29T08:44:29.261Z,64.53
2024-01-29T08:46:57.433Z,63.25
2024-01-29T08:49:25.821Z,62.35
2024-01-29T08:51:54.053Z,60.57
2024-01-29T08:54:22.354Z,59.07
2024-01-29T08:56:50.521Z,58.19
2024-01-29T08:59:22.166Z,58.47
2024-01-29T09:01:50.676Z,59.85
2024-01-29T09:04:19.139Z,61.30
2024-01-29T09:06:47.343Z,62.30
2024-01-29T09:09:15.575Z,64.04
2024-01-29T09:11:44.161Z,63.81
2024-01-29T09:14:14.213Z,63.80
2024-01-29T09:16:42.367Z,62.71
2024-01-29T09:19:11.005Z,61.38
2024-01-29T09:21:39.606Z,60.03
2024-01-29T09:24:08.003Z,57.87
2024-01-29T09:26:36.164Z,57.43
2024-01-29T09:29:05.197Z,57.91
2024-01-29T09:31:34.132Z,59.78
2024-01-29T09:34:04.339Z,60.47
2024-01-29T09:36:33.132Z,62.62
2024-01-29T09:39:01.749Z,63.55
2024-01-29T09:41:35.006Z,63.59
2024-01-29T09:44:07.835Z,63.73
2024-01-29T09:46:39.293Z,62.71
2024-01-29T09:49:08.864Z,58.21
2024-01-29T09:51:37.416Z,55.11
2024-01-29T09:54:06.690Z,55.80
2024-01-29T09:56:34.847Z,57.21
2024-01-29T09:59:04.461Z,58.74
2024-01-29T10:01:33.874Z,58.68
2024-01-29T10:04:02.198Z,59.33
2024-01-29T10:06:33.553Z,60.72
2024-01-29T10:09:02.212Z,63.27
2024-01-29T10:11:31.250Z,66.26
2024-01-29T10:14:00.952Z,65.82
2024-01-29T10:16:29.581Z,61.42
2024-01-29T10:18:59.590Z,56.80
2024-01-29T10:21:28.644Z,53.54
2024-01-29T10:23:58.384Z,54.02
2024-01-29T10:26:28.191Z,56.32
2024-01-29T10:29:07.927Z,56.12
2024-01-29T10:31:37.317Z,56.24
2024-01-29T10:34:07.259Z,58.38
2024-01-29T10:36:40.184Z,60.46
2024-01-29T10:39:13.446Z,61.44
2024-01-29T10:41:44.344Z,61.63
2024-01-29T10:44:17.743Z,63.79
2024-01-29T10:46:48.677Z,66.48
2024-01-29T10:49:17.272Z,63.61
2024-01-29T10:51:49.268Z,56.35
2024-01-29T10:54:17.859Z,54.61
2024-01-29T10:56:46.237Z,55.48
2024-01-29T10:59:15.486Z,56.52
2024-01-29T11:01:52.208Z,58.57
2024-01-29T11:04:26.990Z,59.19
2024-01-29T11:07:06.007Z,59.62
2024-01-29T11:09:35.590Z,60.77
2024-01-29T11:12:06.615Z,60.77
2024-01-29T11:14:34.758Z,60.69
2024-01-29T11:17:02.937Z,61.86
2024-01-29T11:19:34.679Z,63.67
2024-01-29T11:22:02.978Z,65.36
2024-01-29T11:24:34.212Z,62.58
2024-01-29T11:27:13.666Z,58.70
2024-01-29T11:29:46.007Z,55.08
2024-01-29T11:32:17.261Z,55.88
2024-01-29T11:34:45.570Z,57.24
2024-01-29T11:37:16.327Z,58.01
2024-01-29T11:39:46.515Z,58.49
2024-01-29T11:42:16.011Z,57.73
2024-01-29T11:44:44.372Z,58.77
2024-01-29T11:47:12.540Z,60.29
2024-01-29T11:49:42.208Z,61.27
2024-01-29T11:52:11.950Z,61.32
2024-01-29T11:54:40.281Z,63.51
2024-01-29T11:57:08.726Z,64.27
2024-01-29T11:59:46.794Z,63.65
2024-01-29T12:02:15.275Z,57.89
2024-01-29T12:04:43.614Z,54.72
2024-01-29T12:07:12.556Z,55.25
2024-01-29T12:09:40.874Z,54.85
2024-01-29T12:12:09.943Z,56.18
2024-01-29T12:14:38.123Z,57.46
2024-01-29T12:17:08.065Z,59.32
2024-01-29T12:19:36.520Z,60.16
2024-01-29T12:22:05.761Z,60.11
2024-01-29T12:24:33.966Z,59.93
2024-01-29T12:27:02.299Z,60.03
2024-01-29T12:29:30.738Z,60.11
2024-01-29T12:32:07.754Z,61.20
2024-01-29T12:34:44.477Z,61.61
2024-01-29T12:37:22.881Z,65.89
2024-01-29T12:39:55.860Z,64.96
2024-01-29T12:42:30.346Z,58.61
2024-01-29T12:45:09.858Z,55.48
2024-01-29T12:47:38.395Z,55.02
2024-01-29T12:50:06.784Z,56.24
2024-01-29T12:52:35.133Z,58.07
2024-01-29T12:55:04.066Z,59.22
2024-01-29T12:57:32.388Z,58.89
2024-01-29T13:00:00.574Z,59.00
2024-01-29T13:02:29.212Z,59.17
2024-01-29T13:04:57.455Z,60.23
2024-01-29T13:07:26.814Z,60.33
2024-01-29T13:09:56.332Z,61.25
2024-01-29T13:12:24.494Z,61.92
2024-01-29T13:14:52.763Z,64.13
2024-01-29T13:17:20.768Z,63.67
2024-01-29T13:19:49.169Z,62.61
2024-01-29T13:22:17.365Z,58.55
2024-01-29T13:24:45.642Z,54.86
2024-01-29T13:27:14.676Z,54.40
2024-01-29T13:29:43.625Z,54.87
2024-01-29T13:32:11.799Z,56.81
2024-01-29T13:34:39.956Z,57.29
2024-01-29T13:37:08.405Z,57.90
2024-01-29T13:39:37.249Z,58.65
2024-01-29T13:42:05.826Z,59.21
2024-01-29T13:44:34.302Z,59.73
2024-01-29T13:47:02.413Z,59.51
2024-01-29T13:49:31.204Z,60.96
2024-01-29T13:51:59.388Z,61.16
2024-01-29T13:54:29.356Z,60.65
2024-01-29T13:56:57.750Z,61.26
2024-01-29T13:59:26.541Z,64.21
2024-01-29T14:01:54.839Z,66.35
2024-01-29T14:04:23.181Z,64.37
2024-01-29T14:07:02.697Z,59.89
2024-01-29T14:09:31.086Z,54.93
2024-01-29T14:11:59.547Z,55.15
2024-01-29T14:14:34.433Z,56.50
2024-01-29T14:17:08.943Z,56.49
2024-01-29T14:19:37.324Z,57.34
2024-01-29T14:22:05.856Z,59.07
2024-01-29T14:24:34.608Z,58.94
2024-01-29T14:27:02.866Z,59.68
2024-01-29T14:29:31.126Z,59.84
2024-01-29T14:31:59.318Z,60.67
2024-01-29T14:34:27.684Z,60.94
2024-01-29T14:36:56.063Z,61.13
2024-01-29T14:39:24.433Z,61.48
2024-01-29T14:41:53.319Z,64.02
2024-01-29T14:44:21.510Z,66.36
2024-01-29T14:46:49.823Z,64.29
2024-01-29T14:49:18.059Z,62.10
2024-01-29T14:51:47.400Z,59.39
2024-01-29T14:54:15.723Z,55.27
2024-01-29T14:56:44.217Z,55.77
2024-01-29T14:59:12.377Z,56.01
2024-01-29T15:01:41.501Z,56.66
2024-01-29T15:04:13.329Z,57.42
2024-01-29T15:06:42.221Z,58.37
2024-01-29T15:09:11.810Z,58.95
2024-01-29T15:11:40.156Z,59.63
2024-01-29T15:14:08.392Z,60.27
2024-01-29T15:16:36.768Z,60.75
2024-01-29T15:19:05.036Z,61.29
2024-01-29T15:21:33.273Z,63.65
2024-01-29T15:24:01.419Z,65.98
2024-01-29T15:26:30.115Z,65.04
2024-01-29T15:28:58.657Z,64.50
2024-01-29T15:31:32.142Z,62.72
2024-01-29T15:34:00.507Z,59.11
2024-01-29T15:36:28.938Z,55.60
2024-01-29T15:38:57.082Z,55.44
2024-01-29T15:41:25.876Z,56.08
2024-01-29T15:43:54.042Z,56.90
2024-01-29T15:46:23.204Z,57.76
2024-01-29T15:48:51.695Z,58.48
2024-01-29T15:51:23.610Z,59.14
2024-01-29T15:53:53.812Z,59.85
2024-01-29T15:56:21.905Z,60.67
2024-01-29T15:58:50.363Z,61.25
2024-01-29T16:01:18.462Z,62.92
2024-01-29T16:03:46.758Z,66.24
2024-01-29T16:06:15.323Z,65.88
2024-01-29T16:08:45.306Z,65.15
2024-01-29T16:11:13.621Z,63.32
2024-01-29T16:13:41.758Z,61.06
2024-01-29T16:16:14.801Z,58.32
2024-01-29T16:18:44.770Z,56.02
2024-01-29T16:21:19.916Z,56.49
2024-01-29T16:23:48.377Z,57.53
2024-01-29T16:26:20.953Z,58.65
2024-01-29T16:36:44.505Z,62.75
2024-01-29T16:39:12.765Z,66.12
2024-01-29T16:41:41.019Z,66.74
2024-01-29T16:44:12.111Z,63.78
2024-01-29T16:46:43.206Z,61.92
2024-01-29T16:49:11.392Z,61.01
2024-01-29T16:51:39.800Z,59.12
2024-01-29T16:54:08.026Z,56.29
2024-01-29T16:56:38.770Z,56.47
2024-01-29T16:59:09.062Z,57.26
2024-01-29T17:01:37.733Z,58.32
2024-01-29T17:04:06.227Z,59.20
2024-01-29T17:06:35.584Z,60.07
2024-01-29T17:09:04.141Z,60.73
2024-01-29T17:11:32.445Z,61.41
2024-01-29T17:14:01.168Z,64.12
2024-01-29T17:16:29.475Z,67.60
2024-01-29T17:18:57.878Z,66.23
2024-01-29T17:21:27.975Z,64.00
2024-01-29T17:23:56.696Z,62.98
2024-01-29T17:26:24.947Z,61.40
2024-01-29T17:28:54.669Z,58.62
2024-01-29T17:31:22.949Z,56.23
2024-01-29T17:33:51.683Z,56.51
2024-01-29T17:36:21.212Z,57.50
2024-01-29T17:38:49.489Z,58.56
2024-01-29T17:41:17.585Z,59.42
2024-01-29T17:43:46.929Z,60.44
2024-01-29T17:46:16.579Z,61.17
2024-01-29T17:48:45.000Z,62.90
2024-01-29T17:51:13.428Z,65.98
2024-01-29T17:53:41.593Z,66.51
2024-01-29T17:56:09.828Z,65.92
2024-01-29T17:58:38.053Z,64.03
2024-01-29T18:01:09.006Z,63.16
2024-01-29T18:03:37.422Z,61.25
2024-01-29T18:06:06.898Z,58.95
2024-01-29T18:08:37.118Z,56.60
2024-01-29T18:11:05.429Z,57.16
2024-01-29T18:13:33.659Z,58.06
2024-01-29T18:16:01.856Z,59.39
2024-01-29T18:18:30.166Z,60.09
2024-01-29T18:20:59.541Z,60.85
2024-01-29T18:23:27.619Z,62.74
2024-01-29T18:25:55.971Z,66.01
2024-01-29T18:28:24.298Z,66.11
2024-01-29T18:30:52.736Z,64.57
2024-01-29T18:33:21.082Z,63.42
2024-01-29T18:35:49.298Z,62.61
2024-01-29T18:38:17.521Z,61.57
2024-01-29T18:40:45.593Z,61.21
2024-01-29T18:43:14.013Z,58.76
2024-01-29T18:45:42.273Z,56.41
2024-01-29T18:48:10.478Z,56.94
2024-01-29T18:50:38.822Z,58.21
2024-01-29T18:53:07.692Z,59.27
2024-01-29T18:55:35.907Z,60.15
2024-01-29T18:58:04.616Z,61.58
2024-01-29T19:00:32.850Z,64.00
2024-01-29T19:03:01.591Z,66.43
2024-01-29T19:05:30.360Z,66.39
2024-01-29T19:07:58.591Z,66.20
2024-01-29T19:10:26.923Z,65.06
2024-01-29T19:12:55.710Z,63.75
2024-01-29T19:15:25.449Z,62.21
2024-01-29T19:17:53.650Z,59.00
2024-01-29T19:20:21.864Z,55.58
2024-01-29T19:22:50.458Z,55.60
2024-01-29T19:25:18.658Z,56.59
2024-01-29T19:27:47.684Z,57.54
2024-01-29T19:30:16.493Z,58.71
2024-01-29T19:32:44.711Z,59.95
2024-01-29T19:35:13.141Z,60.72
2024-01-29T19:37:41.572Z,61.44
2024-01-29T19:40:11.298Z,63.98
2024-01-29T19:42:39.854Z,67.95
2024-01-29T19:45:10.603Z,67.18
2024-01-29T19:47:38.796Z,65.75
2024-01-29T19:50:13.031Z,64.81
2024-01-29T19:52:41.204Z,63.77
2024-01-29T19:55:09.431Z,61.92
2024-01-29T19:57:39.117Z,58.70
2024-01-29T20:00:09.808Z,54.71
2024-01-29T20:02:39.942Z,54.81
2024-01-29T20:05:09.173Z,55.88
2024-01-29T20:07:38.006Z,57.00
2024-01-29T20:10:07.807Z,58.03
2024-01-29T20:12:35.995Z,59.09
2024-01-29T20:15:04.471Z,60.21
2024-01-29T20:17:32.654Z,61.24
2024-01-29T20:20:00.877Z,63.80
2024-01-29T20:22:30.093Z,67.27
2024-01-29T20:24:58.215Z,67.18
2024-01-29T20:27:26.647Z,65.63
2024-01-29T20:29:55.481Z,64.34
2024-01-29T20:32:26.471Z,62.91
2024-01-29T20:34:55.307Z,59.27
2024-01-29T20:37:23.718Z,55.16
2024-01-29T20:39:52.012Z,55.00
2024-01-29T20:42:20.402Z,55.99
2024-01-29T20:44:49.090Z,57.11
2024-01-29T20:47:17.185Z,58.20
2024-01-29T20:49:46.680Z,59.18
2024-01-29T20:52:14.914Z,60.35
2024-01-29T20:54:45.032Z,61.16
2024-01-29T20:57:13.652Z,63.54
2024-01-29T20:59:41.873Z,67.86
2024-01-29T21:02:13.349Z,67.54
2024-01-29T21:04:42.923Z,65.40
2024-01-29T21:07:11.511Z,63.56
2024-01-29T21:09:39.868Z,61.49
2024-01-29T21:12:08.382Z,58.35
2024-01-29T21:14:36.486Z,55.75
2024-01-29T21:17:05.609Z,56.08
2024-01-29T21:19:34.564Z,57.20
2024-01-29T21:22:03.332Z,58.24
2024-01-29T21:24:36.104Z,59.26
2024-01-29T21:27:04.854Z,60.13
2024-01-29T21:29:33.312Z,60.99
2024-01-29T21:32:01.398Z,63.56
2024-01-29T21:34:30.250Z,67.68
2024-01-29T21:36:59.826Z,67.76
2024-01-29T21:39:28.261Z,66.61
2024-01-29T21:41:56.535Z,65.02
2024-01-29T21:44:26.931Z,62.81
2024-01-29T21:46:55.648Z,59.21
2024-01-29T21:49:23.871Z,55.18
2024-01-29T21:51:53.647Z,55.37
2024-01-29T21:54:22.526Z,56.31
2024-01-29T21:56:50.627Z,57.40
2024-01-29T21:59:19.281Z,58.45
2024-01-29T22:01:47.692Z,59.37
2024-01-29T22:04:16.439Z,60.42
2024-01-29T22:06:45.186Z,61.46
2024-01-29T22:09:13.726Z,64.23
2024-01-29T22:11:41.780Z,67.39
2024-01-29T22:14:10.509Z,67.26
2024-01-29T22:16:38.849Z,66.21
2024-01-29T22:19:07.830Z,64.50
2024-01-29T22:21:36.553Z,62.80
2024-01-29T22:24:05.117Z,61.58
2024-01-29T22:26:33.377Z,58.19
2024-01-29T22:29:01.447Z,55.48
2024-01-29T22:31:29.671Z,55.74
2024-01-29T22:33:58.722Z,56.68
2024-01-29T22:36:29.358Z,58.15
2024-01-29T22:38:59.600Z,58.99
2024-01-29T22:41:28.177Z,60.07
2024-01-29T22:43:56.223Z,61.05
2024-01-29T22:46:24.448Z,63.11
2024-01-29T22:48:55.145Z,66.08
2024-01-29T22:51:27.846Z,66.73
2024-01-29T22:53:56.090Z,65.78
2024-01-29T22:56:24.392Z,65.74
2024-01-29T22:58:52.636Z,64.10
2024-01-29T23:01:21.745Z,62.85
2024-01-29T23:03:49.968Z,62.00
2024-01-29T23:06:18.418Z,59.25
2024-01-29T23:08:46.643Z,55.73
2024-01-29T23:11:14.757Z,55.88
2024-01-29T23:13:43.018Z,56.87
2024-01-29T23:16:11.849Z,57.93
2024-01-29T23:18:41.680Z,58.97
2024-01-29T23:21:10.023Z,59.95
2024-01-29T23:23:38.216Z,61.02
2024-01-29T23:26:06.457Z,63.15
2024-01-29T23:28:35.948Z,67.03
2024-01-29T23:31:04.308Z,67.57
2024-01-29T23:33:32.727Z,67.00
2024-01-29T23:36:00.987Z,64.93
2024-01-29T23:38:29.254Z,63.28
2024-01-29T23:40:58.273Z,62.17
2024-01-29T23:43:26.442Z,58.35
2024-01-29T23:45:54.697Z,55.26
2024-01-29T23:48:22.823Z,55.32
2024-01-29T23:50:51.162Z,56.40
2024-01-29T23:53:19.330Z,57.36
2024-01-29T23:55:48.312Z,58.54
2024-01-29T23:58:16.632Z,60.12
